Coulee Dam, WA (99116)

9:11 AM PST on December 18, 2014 (GMT -0800)
3 miles ESE of Grand Coulee Dam, in Lincoln County, WA | Change Station
CLOSE
Current Station
Personal Weather Station
Location: Grand Coulee, WA
Elevation: 1575 ft
Nearby Weather Stations
Active Advisory: Air Stagnation Advisory

Elev 1575 ft 47.92 °N, 118.94 °W | Updated 47 seconds ago

Overcast
Overcast
36.3 °F
Feels Like 36 °F
N
0.0
Wind Variable Wind from South
Gusts 0.0 mph

Today
High -- | Low -- °F
--% Chance of Precip.
Yesterday
High -- | Low -- °F
Precip. -- in
7:41 AM 4:04 PM
Waning Crescent, 13% visible
Pressure 30.01 in
Visibility 5.0 miles
Clouds Scattered Clouds 800 ft
Overcast 1500 ft
Windchill 36 °F
Dew Point 33 °F
Humidity 88%
Rainfall 0.00 in
Snow Depth Not available.
UV 0 out of 12
Pollen .10 out of 12
Air Quality Not available.
Flu Activity Not available.
SPECI KOMK 181701Z AUTO 21006KT 5SM BR SCT008 OVC015 02/01 A3001 RMK AO2 RAE1658 P0000 T00170011

More Conditions Fewer Conditions

Pressure 30.01 in
Visibility 5.0 miles
Clouds Scattered Clouds 800 ft
Overcast 1500 ft
Windchill 36 °F
Dew Point 33 °F
Humidity 88%
Rainfall 0.00 in
Snow Depth Not available.
UV 0 out of 12
Pollen .10 out of 12
Air Quality Not available.
Flu Activity Not available.
SPECI KOMK 181701Z AUTO 21006KT 5SM BR SCT008 OVC015 02/01 A3001 RMK AO2 RAE1658 P0000 T00170011

More Conditions Fewer Conditions

Nowcast | as of 8:33 am PST on December 18, 2014

Areas of dense fog have been noted throughout the Columbia Basin and onto the Waterville Plateau. Visibilities at or below one quarter of a mile will be possible leading to difficult driving conditions. Expect areas of dense fog to be present through at least 10 am this morning.

×

10-Day Weather Forecast

Almanac

Astronomy

Dec. 18, 2014 Rise Set
Actual Time
Civil Twilight
Nautical Twilight
Astronomical Twilight
Moon
Length of Visible Light
Length of Day
Tomorrow will be .
, % of the Moon is Illuminated

Today's Extremes

State Highs State Lows

Community

WunderPhotos

Upload Photos

1,778,964 photos uploaded!

WunderBlogs® & News

Nearby

Air Quality

  Air Quality AQ Index Pollutant
Not available.

Snow Depth

Station Depth Elevation

Earthquake Activity

City Distance Mag. Time & Date
Minimum magnitude displayed is 2.5.

Coastal Water Temperatures

Place Temperature

Nearby Weather Stations